createdAt,value
2017-04-23T00:00:08.438Z,7.53
2017-04-23T00:01:08.029Z,7.56
2017-04-23T00:02:08.455Z,7.63
2017-04-23T00:03:08.006Z,7.68
2017-04-23T00:04:09.229Z,7.63
2017-04-23T00:05:08.692Z,7.65
2017-04-23T00:06:07.294Z,7.60
2017-04-23T00:07:07.865Z,7.59
2017-04-23T00:08:08.282Z,7.62
2017-04-23T00:09:07.808Z,7.63
2017-04-23T00:10:07.317Z,7.65
2017-04-23T00:11:07.850Z,7.69
2017-04-23T00:12:08.268Z,7.67
2017-04-23T00:13:08.698Z,7.55
2017-04-23T00:14:08.126Z,7.44
2017-04-23T00:15:07.979Z,7.41
2017-04-23T00:16:07.489Z,7.32
2017-04-23T00:17:08.144Z,7.42
2017-04-23T00:18:08.603Z,7.39
2017-04-23T00:19:08.082Z,7.39
2017-04-23T00:20:08.498Z,7.29
2017-04-23T00:21:08.959Z,7.31
2017-04-23T00:22:08.377Z,7.35
2017-04-23T00:23:08.777Z,7.28
2017-04-23T00:24:08.184Z,7.29
2017-04-23T00:25:08.618Z,7.42
2017-04-23T00:26:08.060Z,7.49
2017-04-23T00:27:07.554Z,7.57
2017-04-23T00:28:08.092Z,7.27
2017-04-23T00:29:08.506Z,7.28
2017-04-23T00:30:08.072Z,7.36
2017-04-23T00:31:08.518Z,7.29
2017-04-23T00:32:08.923Z,7.41
2017-04-23T00:33:07.712Z,7.38
2017-04-23T00:34:08.220Z,7.42
2017-04-23T00:35:08.666Z,7.50
2017-04-23T00:36:08.119Z,7.49
2017-04-23T00:37:07.672Z,7.45
2017-04-23T00:38:07.197Z,7.38
2017-04-23T00:39:07.693Z,7.30
2017-04-23T00:40:07.121Z,7.27
2017-04-23T00:41:08.571Z,7.31
2017-04-23T00:42:08.142Z,7.28
2017-04-23T00:43:07.745Z,7.35
2017-04-23T00:44:08.180Z,7.39
2017-04-23T00:45:08.609Z,7.35
2017-04-23T00:46:07.080Z,7.36
2017-04-23T00:47:07.700Z,7.39
2017-04-23T00:48:07.258Z,7.38
2017-04-23T00:49:07.702Z,7.37
2017-04-23T00:50:08.374Z,7.34
2017-04-23T00:51:07.999Z,7.41
2017-04-23T00:52:07.451Z,7.33
2017-04-23T00:53:07.939Z,7.39
2017-04-23T00:54:08.376Z,7.31
2017-04-23T00:55:07.917Z,7.28
2017-04-23T00:56:08.341Z,7.33
2017-04-23T00:57:08.819Z,7.32
2017-04-23T00:58:07.363Z,7.28
2017-04-23T00:59:08.775Z,7.31
2017-04-23T01:00:07.335Z,7.36
2017-04-23T01:01:07.873Z,7.26
2017-04-23T01:02:07.861Z,7.30
2017-04-23T01:03:08.684Z,7.30
2017-04-23T01:04:08.137Z,7.30
2017-04-23T01:05:08.574Z,7.31
2017-04-23T01:06:09.092Z,7.38
2017-04-23T01:07:07.710Z,7.43
2017-04-23T01:08:08.475Z,7.45
2017-04-23T01:09:09.039Z,7.50
2017-04-23T01:10:08.748Z,7.45
2017-04-23T01:11:07.272Z,7.40
2017-04-23T01:12:08.149Z,7.41
2017-04-23T01:13:08.637Z,7.40
2017-04-23T01:14:08.244Z,7.26
2017-04-23T01:15:08.083Z,7.34
2017-04-23T01:16:07.648Z,7.20
2017-04-23T01:17:07.563Z,7.26
2017-04-23T01:18:08.005Z,7.36
2017-04-23T01:19:08.612Z,7.41
2017-04-23T01:20:08.047Z,7.43
2017-04-23T01:21:07.591Z,7.49
2017-04-23T01:22:07.300Z,7.46
2017-04-23T01:23:08.804Z,7.49
2017-04-23T01:24:08.241Z,7.50
2017-04-23T01:25:07.792Z,7.48
2017-04-23T01:26:08.321Z,7.48
2017-04-23T01:27:08.863Z,7.40
2017-04-23T01:28:07.488Z,7.06
2017-04-23T01:29:07.968Z,7.11
2017-04-23T01:30:08.398Z,7.18
2017-04-23T01:31:07.901Z,7.21
2017-04-23T01:32:07.729Z,7.28
2017-04-23T01:33:07.268Z,7.29
2017-04-23T01:34:09.116Z,7.31
2017-04-23T01:35:08.567Z,7.37
2017-04-23T01:36:08.989Z,7.41
2017-04-23T01:37:07.588Z,7.40
2017-04-23T01:38:08.072Z,7.26
2017-04-23T01:39:08.506Z,7.28
2017-04-23T01:40:08.951Z,7.25
2017-04-23T01:41:08.390Z,7.02
2017-04-23T01:42:09.176Z,6.95
2017-04-23T01:43:07.754Z,7.08
2017-04-23T01:44:07.356Z,7.19
2017-04-23T01:45:08.792Z,7.28
2017-04-23T01:46:08.197Z,7.20
2017-04-23T01:47:08.599Z,7.22
2017-04-23T01:48:08.064Z,7.27
2017-04-23T01:49:08.514Z,7.20
2017-04-23T01:50:08.976Z,7.23
2017-04-23T01:51:08.473Z,7.25
2017-04-23T01:52:08.046Z,7.32
2017-04-23T01:53:08.696Z,7.27
2017-04-23T01:54:08.119Z,7.13
2017-04-23T01:55:08.559Z,7.20
2017-04-23T01:56:09.022Z,7.24
2017-04-23T01:57:08.459Z,7.32
2017-04-23T01:58:09.245Z,7.30
2017-04-23T01:59:08.711Z,7.25
2017-04-23T02:00:08.120Z,7.27
2017-04-23T02:01:08.536Z,7.11
2017-04-23T02:02:08.971Z,7.12
2017-04-23T02:03:08.423Z,7.15
2017-04-23T02:04:08.887Z,7.15
2017-04-23T02:05:08.544Z,7.24
2017-04-23T02:06:08.976Z,7.30
2017-04-23T02:07:07.616Z,7.33
2017-04-23T02:08:07.076Z,7.30
2017-04-23T02:09:08.564Z,7.33
2017-04-23T02:10:08.046Z,7.30
2017-04-23T02:11:07.483Z,7.20
2017-04-23T02:12:08.937Z,7.22
2017-04-23T02:13:08.369Z,7.21
2017-04-23T02:14:07.908Z,7.23
2017-04-23T02:15:07.464Z,7.12
2017-04-23T02:16:08.868Z,7.24
2017-04-23T02:17:08.367Z,7.28
2017-04-23T02:18:08.839Z,7.32
2017-04-23T02:19:07.355Z,7.32
2017-04-23T02:20:08.865Z,7.32
2017-04-23T02:21:07.702Z,7.27
2017-04-23T02:22:08.170Z,7.30
2017-04-23T02:23:07.723Z,7.26
2017-04-23T02:24:08.178Z,7.29
2017-04-23T02:25:08.603Z,7.29
2017-04-23T02:26:08.028Z,7.31
2017-04-23T02:27:07.407Z,7.33
2017-04-23T02:28:08.997Z,7.34
2017-04-23T02:29:07.460Z,7.32
2017-04-23T02:30:08.909Z,7.27
2017-04-23T02:31:08.461Z,7.24
2017-04-23T02:32:08.021Z,7.29
2017-04-23T02:33:08.442Z,7.22
2017-04-23T02:34:08.136Z,7.25
2017-04-23T02:35:07.697Z,7.19
2017-04-23T02:36:08.119Z,7.27
2017-04-23T02:37:08.872Z,7.26
2017-04-23T02:38:07.368Z,7.23
2017-04-23T02:39:08.177Z,7.26
2017-04-23T02:40:08.651Z,7.24
2017-04-23T02:41:07.720Z,7.29
2017-04-23T02:42:08.166Z,7.26
2017-04-23T02:43:08.039Z,7.25
2017-04-23T02:44:07.569Z,7.27
2017-04-23T02:45:08.052Z,7.27
2017-04-23T02:46:07.575Z,7.25
2017-04-23T02:47:08.036Z,7.28
2017-04-23T02:48:08.453Z,7.28
2017-04-23T02:49:07.939Z,7.29
2017-04-23T02:50:07.772Z,7.32
2017-04-23T02:51:07.358Z,7.29
2017-04-23T02:52:07.830Z,7.31
2017-04-23T02:53:07.342Z,7.33
2017-04-23T02:54:07.932Z,7.32
2017-04-23T02:55:07.439Z,7.32
2017-04-23T02:56:08.866Z,7.33
2017-04-23T02:57:08.331Z,7.22
2017-04-23T02:58:08.760Z,7.25
2017-04-23T02:59:08.525Z,7.30
2017-04-23T03:00:08.936Z,7.24
2017-04-23T03:01:07.455Z,7.25
2017-04-23T03:02:08.071Z,7.22
2017-04-23T03:03:08.537Z,7.21
2017-04-23T03:04:09.031Z,7.21
2017-04-23T03:05:08.653Z,7.19
2017-04-23T03:06:08.101Z,7.19
2017-04-23T03:07:08.542Z,7.24
2017-04-23T03:08:08.127Z,7.24
2017-04-23T03:09:07.914Z,7.22
2017-04-23T03:10:08.343Z,7.23
2017-04-23T03:11:08.745Z,7.22
2017-04-23T03:12:08.212Z,7.25
2017-04-23T03:13:07.797Z,7.22
2017-04-23T03:14:07.262Z,7.23
2017-04-23T03:15:07.826Z,7.24
2017-04-23T03:16:07.377Z,7.18
2017-04-23T03:17:08.857Z,7.12
2017-04-23T03:18:07.396Z,7.17
2017-04-23T03:19:08.824Z,7.13
2017-04-23T03:20:08.247Z,7.14
2017-04-23T03:21:08.681Z,7.13
2017-04-23T03:22:08.115Z,7.16
2017-04-23T03:23:08.589Z,7.14
2017-04-23T03:24:08.078Z,7.13
2017-04-23T03:25:08.489Z,7.11
2017-04-23T03:26:09.173Z,7.18
2017-04-23T03:27:08.606Z,7.23
2017-04-23T03:28:08.050Z,7.20
2017-04-23T03:29:08.454Z,7.21
2017-04-23T03:30:08.887Z,7.27
2017-04-23T03:31:07.804Z,7.25
2017-04-23T03:32:08.232Z,7.24
2017-04-23T03:33:08.877Z,7.27
2017-04-23T03:34:07.527Z,7.24
2017-04-23T03:35:09.015Z,7.27
2017-04-23T03:36:08.462Z,7.16
2017-04-23T03:37:08.891Z,7.14
2017-04-23T03:38:08.295Z,7.11
2017-04-23T03:39:07.885Z,7.10
2017-04-23T03:40:08.308Z,7.13
2017-04-23T03:41:08.741Z,7.14
2017-04-23T03:42:08.455Z,7.14
2017-04-23T03:43:07.989Z,7.12
2017-04-23T03:44:08.513Z,7.06
2017-04-23T03:45:08.945Z,7.11
2017-04-23T03:46:07.496Z,7.11
2017-04-23T03:47:08.044Z,7.16
2017-04-23T03:48:07.566Z,7.22
2017-04-23T03:49:09.028Z,7.20
2017-04-23T03:50:08.472Z,7.16
2017-04-23T03:51:08.884Z,7.20
2017-04-23T03:52:08.341Z,7.20
2017-04-23T03:53:08.761Z,7.21
2017-04-23T03:54:07.255Z,7.21
2017-04-23T03:55:08.941Z,7.12
2017-04-23T03:56:07.800Z,6.97
2017-04-23T03:57:08.245Z,7.02
2017-04-23T03:58:08.697Z,7.09
2017-04-23T03:59:07.193Z,7.13
2017-04-23T04:00:07.708Z,6.90
2017-04-23T04:01:07.249Z,6.90
2017-04-23T04:02:08.714Z,6.94
2017-04-23T04:03:07.505Z,6.96
2017-04-23T04:04:08.353Z,6.99
2017-04-23T04:05:07.928Z,6.90
2017-04-23T04:06:07.424Z,6.97
2017-04-23T04:07:08.883Z,6.95
2017-04-23T04:08:08.329Z,6.97
2017-04-23T04:09:08.751Z,6.98
2017-04-23T04:10:08.199Z,7.02
2017-04-23T04:11:08.610Z,7.08
2017-04-23T04:12:08.034Z,7.10
2017-04-23T04:13:08.612Z,6.97
2017-04-23T04:14:07.158Z,6.97
2017-04-23T04:15:08.571Z,6.97
2017-04-23T04:16:08.989Z,6.98
2017-04-23T04:17:08.565Z,6.93
2017-04-23T04:18:09.004Z,6.74
2017-04-23T04:19:08.422Z,6.81
2017-04-23T04:20:08.852Z,6.94
2017-04-23T04:21:07.436Z,6.94
2017-04-23T04:22:07.950Z,6.98
2017-04-23T04:23:07.454Z,7.05
2017-04-23T04:24:08.441Z,6.98
2017-04-23T04:25:10.613Z,6.95
2017-04-23T04:26:07.971Z,6.98
2017-04-23T04:27:07.267Z,6.92
2017-04-23T04:28:07.741Z,6.84
2017-04-23T04:29:07.302Z,6.89
2017-04-23T04:30:07.901Z,6.86
2017-04-23T04:31:07.500Z,6.83
2017-04-23T04:32:08.345Z,6.89
2017-04-23T04:33:08.154Z,6.83
2017-04-23T04:34:07.727Z,6.92
2017-04-23T04:35:07.238Z,7.04
2017-04-23T04:36:07.811Z,7.01
2017-04-23T04:37:07.348Z,6.83
2017-04-23T04:38:07.968Z,6.90
2017-04-23T04:39:07.476Z,6.95
2017-04-23T04:40:07.967Z,7.00
2017-04-23T04:41:07.463Z,6.78
2017-04-23T04:42:08.081Z,6.73
2017-04-23T04:43:07.716Z,6.76
2017-04-23T04:44:07.494Z,6.75
2017-04-23T04:45:08.171Z,6.86
2017-04-23T04:46:07.702Z,6.92
2017-04-23T04:47:09.233Z,6.87
2017-04-23T04:48:07.891Z,6.91
2017-04-23T04:49:07.461Z,6.97
2017-04-23T04:50:08.042Z,6.87
2017-04-23T04:51:07.553Z,6.81
2017-04-23T04:52:08.046Z,6.96
2017-04-23T04:53:07.589Z,6.89
2017-04-23T04:54:07.156Z,6.86
2017-04-23T04:55:07.719Z,6.92
2017-04-23T04:56:07.242Z,7.00
2017-04-23T04:57:07.917Z,6.89
2017-04-23T04:58:07.515Z,6.92
2017-04-23T04:59:07.084Z,7.05
2017-04-23T05:00:07.599Z,7.02
2017-04-23T05:01:07.149Z,6.79
2017-04-23T05:02:07.767Z,6.75
2017-04-23T05:03:07.317Z,6.92
2017-04-23T05:04:08.051Z,6.98
2017-04-23T05:05:07.640Z,6.93
2017-04-23T05:06:07.428Z,7.02
2017-04-23T05:07:08.029Z,7.07
2017-04-23T05:08:07.521Z,7.01
2017-04-23T05:09:08.219Z,6.95
2017-04-23T05:10:07.725Z,7.06
2017-04-23T05:11:07.251Z,7.03
2017-04-23T05:12:07.687Z,6.89
2017-04-23T05:13:07.672Z,6.83
2017-04-23T05:14:07.218Z,6.92
2017-04-23T05:15:07.717Z,6.98
2017-04-23T05:16:07.459Z,7.09
2017-04-23T05:17:08.170Z,7.07
2017-04-23T05:18:07.797Z,7.08
2017-04-23T05:19:07.429Z,6.81
2017-04-23T05:20:07.897Z,6.91
2017-04-23T05:21:07.797Z,6.85
2017-04-23T05:22:07.266Z,6.98
2017-04-23T05:23:07.843Z,7.11
2017-04-23T05:24:07.456Z,7.20
2017-04-23T05:25:08.286Z,7.00
2017-04-23T05:26:07.805Z,6.97
2017-04-23T05:27:07.321Z,7.06
2017-04-23T05:28:07.897Z,7.16
2017-04-23T05:29:07.707Z,7.25
2017-04-23T05:30:07.186Z,7.29
2017-04-23T05:31:07.674Z,7.32
2017-04-23T05:32:07.415Z,7.31
2017-04-23T05:33:07.991Z,7.40
2017-04-23T05:34:07.703Z,7.25
2017-04-23T05:35:07.222Z,7.23
2017-04-23T05:36:07.770Z,7.26
2017-04-23T05:37:07.345Z,7.23
2017-04-23T05:38:07.891Z,7.28
2017-04-23T05:39:07.405Z,7.06
2017-04-23T05:40:07.907Z,7.24
2017-04-23T05:41:07.439Z,7.28
2017-04-23T05:42:07.984Z,7.15
2017-04-23T05:43:07.603Z,7.06
2017-04-23T05:44:07.186Z,7.09
2017-04-23T05:45:07.730Z,7.11
2017-04-23T05:46:07.212Z,7.19
2017-04-23T05:47:07.807Z,7.03
2017-04-23T05:48:07.455Z,6.96
2017-04-23T05:49:07.960Z,7.05
2017-04-23T05:50:07.764Z,7.18
2017-04-23T05:51:07.262Z,7.26
2017-04-23T05:52:07.855Z,7.31
2017-04-23T05:53:07.647Z,7.30
2017-04-23T05:54:07.129Z,7.29
2017-04-23T05:55:07.628Z,7.30
2017-04-23T05:56:07.196Z,7.35
2017-04-23T05:57:07.253Z,7.26
2017-04-23T05:58:07.913Z,7.28
2017-04-23T05:59:07.463Z,7.38
2017-04-23T06:00:08.533Z,7.35
2017-04-23T06:01:08.174Z,7.12
2017-04-23T06:02:07.770Z,7.16
2017-04-23T06:03:07.326Z,7.20
2017-04-23T06:04:08.075Z,7.17
2017-04-23T06:05:07.593Z,7.23
2017-04-23T06:06:07.316Z,7.25
2017-04-23T06:07:07.934Z,7.14
2017-04-23T06:08:07.567Z,7.29
2017-04-23T06:09:07.173Z,7.19
2017-04-23T06:10:08.014Z,7.18
2017-04-23T06:11:07.571Z,7.21
2017-04-23T06:12:08.154Z,7.29
2017-04-23T06:13:07.811Z,7.32
2017-04-23T06:14:07.413Z,7.24
2017-04-23T06:15:07.988Z,7.04
2017-04-23T06:16:07.573Z,7.06
2017-04-23T06:17:08.247Z,7.26
2017-04-23T06:18:07.937Z,7.29
2017-04-23T06:19:07.450Z,7.32
2017-04-23T06:20:08.014Z,7.47
2017-04-23T06:21:07.816Z,7.50
2017-04-23T06:22:07.289Z,7.54
2017-04-23T06:23:07.975Z,7.30
2017-04-23T06:24:07.563Z,7.29
2017-04-23T06:25:08.110Z,7.39
2017-04-23T06:26:07.682Z,7.29
2017-04-23T06:27:07.202Z,7.30
2017-04-23T06:28:08.091Z,7.38
2017-04-23T06:29:07.727Z,7.46
2017-04-23T06:30:07.200Z,7.45
2017-04-23T06:31:07.830Z,7.49
2017-04-23T06:32:07.553Z,7.55
2017-04-23T06:33:08.177Z,7.45
2017-04-23T06:34:07.835Z,7.55
2017-04-23T06:35:07.257Z,7.58
2017-04-23T06:36:07.845Z,7.59
2017-04-23T06:37:07.429Z,7.73
2017-04-23T06:38:08.013Z,7.81
2017-04-23T06:39:07.492Z,7.83
2017-04-23T06:40:08.013Z,7.87
2017-04-23T06:41:07.566Z,7.85
2017-04-23T06:42:08.150Z,7.88
2017-04-23T06:43:07.674Z,7.67
2017-04-23T06:44:07.182Z,7.69
2017-04-23T06:45:07.673Z,7.62
2017-04-23T06:46:07.219Z,7.51
2017-04-23T06:47:07.807Z,7.44
2017-04-23T06:48:07.438Z,7.41
2017-04-23T06:49:08.061Z,7.56
2017-04-23T06:50:07.536Z,7.40
2017-04-23T06:51:08.081Z,7.48
2017-04-23T06:52:07.564Z,7.51
2017-04-23T06:53:08.142Z,7.54
2017-04-23T06:54:07.702Z,7.58
2017-04-23T06:55:07.507Z,7.62
2017-04-23T06:56:08.334Z,7.70
2017-04-23T06:57:07.880Z,7.65
2017-04-23T06:58:07.768Z,7.70
2017-04-23T06:59:07.257Z,7.56
2017-04-23T07:00:07.759Z,7.65
2017-04-23T07:01:07.377Z,7.50
2017-04-23T07:02:07.901Z,7.59
2017-04-23T07:03:07.783Z,7.71
2017-04-23T07:04:07.311Z,7.66
2017-04-23T07:05:07.944Z,7.73
2017-04-23T07:06:07.455Z,7.75
2017-04-23T07:07:07.966Z,7.78
2017-04-23T07:08:07.486Z,7.82
2017-04-23T07:09:08.075Z,7.86
2017-04-23T07:10:07.563Z,7.86
2017-04-23T07:11:08.117Z,7.94
2017-04-23T07:12:07.758Z,8.07
2017-04-23T07:13:07.300Z,8.02
2017-04-23T07:14:07.820Z,8.06
2017-04-23T07:15:07.383Z,8.10
2017-04-23T07:16:07.890Z,7.97
2017-04-23T07:17:07.578Z,8.02
2017-04-23T07:18:07.129Z,8.03
2017-04-23T07:19:07.691Z,8.03
2017-04-23T07:20:07.208Z,8.05
2017-04-23T07:21:07.671Z,8.15
2017-04-23T07:22:07.210Z,8.14
2017-04-23T07:23:07.692Z,8.16
2017-04-23T07:24:08.139Z,8.14
2017-04-23T07:25:07.936Z,8.12
2017-04-23T07:26:07.430Z,8.17
2017-04-23T07:27:08.315Z,8.06
2017-04-23T07:28:07.924Z,8.09
2017-04-23T07:29:07.558Z,8.03
2017-04-23T07:30:08.165Z,8.16
2017-04-23T07:31:07.628Z,8.23
2017-04-23T07:32:07.127Z,8.17
2017-04-23T07:33:07.719Z,8.15
2017-04-23T07:34:07.336Z,8.12
2017-04-23T07:35:08.133Z,7.74
2017-04-23T07:36:07.716Z,7.87
2017-04-23T07:37:07.239Z,8.03
2017-04-23T07:38:08.099Z,8.14
2017-04-23T07:39:07.774Z,8.13
2017-04-23T07:40:07.466Z,8.21
2017-04-23T07:41:07.999Z,8.26
2017-04-23T07:42:07.553Z,8.27
2017-04-23T07:43:08.357Z,8.20
2017-04-23T07:44:08.005Z,8.23
2017-04-23T07:45:07.780Z,8.20
2017-04-23T07:46:07.420Z,8.14
2017-04-23T07:47:08.858Z,8.14
2017-04-23T07:48:08.278Z,8.12
2017-04-23T07:49:07.633Z,8.12
2017-04-23T07:50:07.190Z,8.12
2017-04-23T07:51:07.754Z,8.14
2017-04-23T07:52:07.341Z,7.89
2017-04-23T07:53:07.890Z,8.02
2017-04-23T07:54:07.452Z,8.16
2017-04-23T07:55:08.186Z,8.20
2017-04-23T07:56:07.769Z,8.05
2017-04-23T07:57:07.286Z,8.05
2017-04-23T07:58:07.832Z,8.06
2017-04-23T07:59:07.445Z,8.16
2017-04-23T08:00:08.302Z,8.10
2017-04-23T08:01:07.839Z,8.01
2017-04-23T08:02:07.421Z,8.10
2017-04-23T08:03:08.041Z,8.14
2017-04-23T08:04:07.873Z,7.82
2017-04-23T08:05:07.459Z,7.92
2017-04-23T08:06:08.046Z,7.64
2017-04-23T08:07:07.630Z,7.66
2017-04-23T08:08:07.197Z,7.76
2017-04-23T08:09:07.763Z,7.76
2017-04-23T08:10:07.398Z,7.58
2017-04-23T08:11:08.012Z,7.57
2017-04-23T08:12:07.558Z,7.71
2017-04-23T08:13:08.188Z,7.57
2017-04-23T08:14:07.779Z,7.66
2017-04-23T08:15:07.316Z,7.74
2017-04-23T08:16:07.837Z,7.80
2017-04-23T08:17:07.385Z,7.76
2017-04-23T08:18:08.215Z,7.80
2017-04-23T08:19:08.017Z,7.83
2017-04-23T08:20:07.808Z,7.84
2017-04-23T08:21:07.403Z,7.82
2017-04-23T08:22:08.091Z,7.93
2017-04-23T08:23:07.683Z,7.97
2017-04-23T08:24:07.160Z,8.00
2017-04-23T08:25:07.897Z,8.14
2017-04-23T08:26:07.369Z,8.06
2017-04-23T08:27:07.143Z,8.03
2017-04-23T08:28:07.672Z,7.97
2017-04-23T08:29:07.149Z,7.93
2017-04-23T08:30:07.666Z,7.86
2017-04-23T08:31:07.339Z,8.07
2017-04-23T08:32:07.952Z,8.21
2017-04-23T08:33:07.543Z,8.27
2017-04-23T08:34:08.029Z,8.42
2017-04-23T08:35:07.668Z,8.43
2017-04-23T08:36:07.233Z,8.48
2017-04-23T08:37:07.752Z,8.50
2017-04-23T08:38:07.348Z,8.47
2017-04-23T08:39:07.958Z,8.56
2017-04-23T08:40:07.529Z,8.35
2017-04-23T08:41:08.159Z,8.44
2017-04-23T08:42:07.977Z,8.53
2017-04-23T08:43:07.553Z,8.51
2017-04-23T08:44:08.175Z,8.50
2017-04-23T08:45:07.827Z,8.53
2017-04-23T08:46:07.324Z,8.31
2017-04-23T08:47:07.845Z,8.45
2017-04-23T08:48:07.485Z,8.31
2017-04-23T08:49:08.226Z,8.27
2017-04-23T08:50:07.690Z,8.47
2017-04-23T08:51:07.257Z,8.53
2017-04-23T08:52:07.773Z,8.56
2017-04-23T08:53:07.263Z,8.65
2017-04-23T08:54:07.802Z,8.47
2017-04-23T08:55:07.500Z,8.34
2017-04-23T08:56:08.018Z,8.44
2017-04-23T08:57:07.682Z,8.55
2017-04-23T08:58:07.622Z,8.73
2017-04-23T08:59:07.266Z,8.58
2017-04-23T09:00:07.865Z,8.75
2017-04-23T09:01:07.319Z,8.85
2017-04-23T09:02:08.028Z,8.82
2017-04-23T09:03:07.870Z,8.83
2017-04-23T09:04:07.510Z,8.90
2017-04-23T09:05:08.138Z,8.62
2017-04-23T09:06:10.700Z,8.76
2017-04-23T09:07:07.257Z,8.55
2017-04-23T09:08:07.744Z,8.77
2017-04-23T09:09:07.331Z,8.83
2017-04-23T09:10:07.926Z,8.67
2017-04-23T09:11:07.404Z,8.66
2017-04-23T09:12:08.830Z,8.80
2017-04-23T09:13:07.373Z,8.82
2017-04-23T09:14:08.005Z,8.70
2017-04-23T09:15:07.558Z,8.74
2017-04-23T09:16:08.189Z,8.78
2017-04-23T09:17:07.900Z,8.81
2017-04-23T09:18:07.403Z,8.70
2017-04-23T09:19:07.981Z,8.69
2017-04-23T09:20:07.555Z,8.60
2017-04-23T09:21:08.076Z,8.69
2017-04-23T09:22:07.665Z,8.80
2017-04-23T09:23:07.148Z,8.87
2017-04-23T09:24:07.765Z,8.94
2017-04-23T09:25:07.256Z,9.00
2017-04-23T09:26:07.731Z,8.80
2017-04-23T09:27:07.555Z,8.84
2017-04-23T09:28:07.642Z,8.83
2017-04-23T09:29:07.127Z,8.60
2017-04-23T09:30:08.106Z,8.67
2017-04-23T09:31:07.653Z,8.67
2017-04-23T09:32:07.343Z,8.57
2017-04-23T09:33:08.042Z,8.69
2017-04-23T09:34:07.769Z,8.79
2017-04-23T09:35:07.208Z,8.97
2017-04-23T09:36:07.534Z,8.86
2017-04-23T09:37:08.096Z,8.84
2017-04-23T09:38:07.596Z,8.88
2017-04-23T09:39:07.104Z,9.01
2017-04-23T09:40:07.843Z,9.10
2017-04-23T09:41:07.324Z,9.07
2017-04-23T09:42:08.082Z,9.11
2017-04-23T09:43:07.624Z,9.10
2017-04-23T09:44:07.198Z,9.10
2017-04-23T09:45:07.782Z,9.11
2017-04-23T09:46:07.316Z,9.21
2017-04-23T09:47:07.896Z,9.13
2017-04-23T09:48:07.513Z,9.19
2017-04-23T09:49:08.206Z,9.12
2017-04-23T09:50:07.898Z,8.80
2017-04-23T09:51:07.554Z,8.71
2017-04-23T09:52:08.201Z,8.69
2017-04-23T09:53:07.660Z,8.65
2017-04-23T09:54:07.224Z,8.78
2017-04-23T09:55:08.149Z,8.66
2017-04-23T09:56:07.933Z,8.69
2017-04-23T09:57:07.484Z,8.79
2017-04-23T09:58:07.572Z,8.95
2017-04-23T09:59:08.067Z,9.00
2017-04-23T10:00:07.827Z,9.00
2017-04-23T10:01:07.362Z,8.99
2017-04-23T10:02:07.999Z,8.99
2017-04-23T10:03:07.594Z,8.92
2017-04-23T10:04:07.189Z,8.93
2017-04-23T10:05:07.701Z,8.90
2017-04-23T10:06:07.343Z,8.92
2017-04-23T10:07:07.893Z,8.88
2017-04-23T10:08:07.517Z,8.86
2017-04-23T10:09:08.050Z,8.92
2017-04-23T10:10:07.865Z,8.92
2017-04-23T10:11:07.455Z,8.90
2017-04-23T10:12:08.027Z,8.83
2017-04-23T10:13:07.815Z,8.94
2017-04-23T10:14:07.291Z,8.93
2017-04-23T10:15:07.813Z,8.93
2017-04-23T10:16:07.829Z,9.08
2017-04-23T10:17:07.571Z,9.04
2017-04-23T10:18:08.175Z,9.08
2017-04-23T10:19:07.997Z,8.95
2017-04-23T10:20:07.570Z,9.03
2017-04-23T10:21:08.422Z,9.19
2017-04-23T10:22:08.026Z,8.80
2017-04-23T10:23:07.527Z,9.04
2017-04-23T10:24:08.415Z,9.13
2017-04-23T10:25:08.053Z,9.14
2017-04-23T10:26:07.581Z,9.08
2017-04-23T10:27:07.155Z,9.21
2017-04-23T10:28:07.937Z,9.10
2017-04-23T10:29:07.463Z,9.04
2017-04-23T10:30:08.145Z,8.89
2017-04-23T10:31:08.189Z,8.83
2017-04-23T10:32:07.965Z,8.84
2017-04-23T10:33:07.622Z,8.88
2017-04-23T10:34:07.255Z,8.84
2017-04-23T10:35:07.809Z,8.78
2017-04-23T10:36:07.366Z,8.85
2017-04-23T10:37:07.960Z,8.86
2017-04-23T10:38:07.503Z,8.85
2017-04-23T10:39:08.064Z,8.73
2017-04-23T10:40:07.569Z,8.79
2017-04-23T10:41:08.393Z,8.83
2017-04-23T10:42:07.957Z,8.84
2017-04-23T10:43:07.615Z,8.94
2017-04-23T10:44:07.104Z,8.87
2017-04-23T10:45:07.641Z,8.99
2017-04-23T10:46:07.262Z,8.97
2017-04-23T10:47:07.859Z,9.05
2017-04-23T10:48:07.693Z,9.01
2017-04-23T10:49:07.179Z,8.82
2017-04-23T10:50:07.821Z,9.03
2017-04-23T10:51:07.693Z,9.11
2017-04-23T10:52:07.217Z,9.30
2017-04-23T10:53:10.810Z,9.08
2017-04-23T10:54:07.284Z,9.28
2017-04-23T10:55:07.846Z,9.27
2017-04-23T10:56:08.318Z,9.42
2017-04-23T10:57:07.940Z,9.57
2017-04-23T10:58:07.806Z,9.61
2017-04-23T10:59:07.413Z,9.72
2017-04-23T11:00:07.953Z,9.68
2017-04-23T11:01:07.554Z,9.76
2017-04-23T11:02:09.029Z,9.89
2017-04-23T11:03:07.705Z,10.05
2017-04-23T11:04:07.561Z,10.07
2017-04-23T11:05:08.166Z,10.16
2017-04-23T11:06:07.749Z,9.99
2017-04-23T11:07:07.377Z,9.81
2017-04-23T11:08:07.927Z,9.82
2017-04-23T11:09:07.478Z,9.73
2017-04-23T11:10:08.033Z,9.70
2017-04-23T11:11:07.610Z,9.81
2017-04-23T11:12:07.153Z,10.00
2017-04-23T11:13:08.038Z,9.92
2017-04-23T11:14:07.637Z,10.03
2017-04-23T11:15:07.132Z,10.14
2017-04-23T11:16:07.613Z,10.00
2017-04-23T11:17:07.252Z,10.03
2017-04-23T11:18:07.920Z,9.73
2017-04-23T11:19:07.493Z,9.73
2017-04-23T11:20:07.917Z,9.71
2017-04-23T11:21:07.408Z,9.78
2017-04-23T11:22:07.870Z,9.87
2017-04-23T11:23:07.293Z,9.87
2017-04-23T11:24:07.090Z,9.89
2017-04-23T11:25:07.684Z,10.03
2017-04-23T11:26:07.213Z,10.01
2017-04-23T11:27:07.736Z,10.01
2017-04-23T11:28:07.340Z,9.70
2017-04-23T11:29:07.942Z,9.82
2017-04-23T11:30:07.582Z,9.75
2017-04-23T11:31:07.236Z,9.80
2017-04-23T11:32:07.781Z,9.50
2017-04-23T11:33:07.248Z,9.36
2017-04-23T11:34:07.871Z,9.44
2017-04-23T11:35:07.706Z,9.48
2017-04-23T11:36:07.293Z,9.48
2017-04-23T11:37:08.071Z,9.60
2017-04-23T11:38:08.504Z,9.53
2017-04-23T11:39:08.073Z,9.62
2017-04-23T11:40:07.704Z,9.56
2017-04-23T11:41:07.295Z,9.60
2017-04-23T11:42:07.841Z,9.48
2017-04-23T11:43:07.501Z,9.39
2017-04-23T11:44:08.272Z,9.42
2017-04-23T11:45:08.113Z,9.30
2017-04-23T11:46:07.803Z,9.30
2017-04-23T11:47:07.441Z,9.41
2017-04-23T11:48:08.076Z,9.52
2017-04-23T11:49:07.566Z,9.57
2017-04-23T11:50:07.674Z,9.58
2017-04-23T11:51:07.174Z,9.31
2017-04-23T11:52:07.744Z,9.53
2017-04-23T11:53:07.252Z,9.67
2017-04-23T11:54:07.876Z,9.72
2017-04-23T11:55:07.377Z,9.91
2017-04-23T11:56:07.960Z,9.89
2017-04-23T11:57:07.591Z,9.88
2017-04-23T11:58:07.244Z,9.70
2017-04-23T11:59:07.738Z,9.95
2017-04-23T12:00:07.267Z,10.01
2017-04-23T12:01:07.811Z,10.22
2017-04-23T12:02:07.383Z,10.22
2017-04-23T12:03:07.983Z,10.27
2017-04-23T12:04:07.681Z,10.17
2017-04-23T12:05:07.230Z,10.10
2017-04-23T12:06:07.736Z,10.11
2017-04-23T12:07:07.355Z,10.04
2017-04-23T12:08:07.816Z,10.16
2017-04-23T12:09:07.294Z,10.18
2017-04-23T12:10:08.122Z,10.04
2017-04-23T12:11:07.691Z,10.00
2017-04-23T12:12:07.679Z,10.04
2017-04-23T12:13:07.202Z,10.10
2017-04-23T12:14:07.803Z,9.99
2017-04-23T12:15:07.404Z,9.86
2017-04-23T12:16:07.992Z,10.04
2017-04-23T12:17:07.758Z,10.12
2017-04-23T12:18:07.546Z,9.84
2017-04-23T12:19:08.147Z,10.04
2017-04-23T12:20:07.716Z,9.87
2017-04-23T12:21:07.191Z,9.92
2017-04-23T12:22:08.248Z,9.95
2017-04-23T12:23:07.733Z,10.12
2017-04-23T12:24:07.350Z,10.18
2017-04-23T12:25:07.928Z,10.29
2017-04-23T12:26:07.557Z,10.35
2017-04-23T12:27:08.085Z,10.23
2017-04-23T12:28:07.710Z,10.41
2017-04-23T12:29:07.272Z,10.52
2017-04-23T12:30:07.993Z,10.51
2017-04-23T12:31:07.541Z,10.50
2017-04-23T12:32:07.203Z,10.39
2017-04-23T12:33:08.702Z,10.63
2017-04-23T12:34:07.579Z,10.59
2017-04-23T12:35:07.186Z,10.52
2017-04-23T12:36:07.739Z,10.46
2017-04-23T12:37:07.306Z,10.28
2017-04-23T12:38:08.054Z,10.40
2017-04-23T12:39:07.739Z,10.42
2017-04-23T12:40:07.552Z,10.33
2017-04-23T12:41:07.090Z,10.13
2017-04-23T12:42:07.865Z,10.25
2017-04-23T12:43:07.431Z,10.28
2017-04-23T12:44:08.040Z,10.24
2017-04-23T12:45:08.613Z,10.28
2017-04-23T12:46:07.290Z,10.41
2017-04-23T12:47:07.860Z,10.39
2017-04-23T12:48:07.492Z,10.45
2017-04-23T12:49:07.105Z,10.28
2017-04-23T12:50:07.671Z,10.12
2017-04-23T12:51:07.916Z,10.23
2017-04-23T12:52:07.625Z,10.30
2017-04-23T12:53:08.132Z,10.29
2017-04-23T12:54:07.798Z,10.29
2017-04-23T12:55:07.717Z,10.24
2017-04-23T12:56:07.301Z,10.30
2017-04-23T12:57:07.872Z,10.32
2017-04-23T12:58:07.067Z,10.27
2017-04-23T12:59:07.622Z,10.33
2017-04-23T13:00:08.110Z,10.46
2017-04-23T13:01:07.771Z,10.69
2017-04-23T13:02:07.597Z,10.71
2017-04-23T13:03:07.293Z,10.74
2017-04-23T13:04:08.061Z,10.95
2017-04-23T13:05:07.982Z,11.20
2017-04-23T13:06:07.741Z,11.18
2017-04-23T13:07:07.322Z,11.26
2017-04-23T13:08:08.003Z,11.07
2017-04-23T13:09:07.609Z,10.86
2017-04-23T13:10:07.138Z,10.82
2017-04-23T13:11:07.792Z,10.83
2017-04-23T13:12:07.306Z,10.95
2017-04-23T13:13:08.179Z,11.25
2017-04-23T13:14:07.902Z,11.34
2017-04-23T13:15:07.542Z,11.02